Nikolaevsk, Alaska
Current Conditions -  °F | °C
As of 4:53 AM on Monday 24 Nov 2014 (Local Time) from PAHO Reporting Station
Scattered Clouds Scattered Clouds  
Wind Chill: 35°   Ceiling: Unl
Heat Index: 35°   Visibility: 10mi
Dew Point: 32°   Wind: 3mph
Humidity: 89%   Direction: 20°NNE
Pressure: 29.6"   Gusts: NA
Location:  59.8183°N, 151.638°W
Report Text: PAHO 241353Z AUTO 02003KT 10SM FEW037 SCT048 02/00 A2960 RMK AO2 SLP024 T00170000 TSNO
Loading
Personal Weather Stations






























Interactive Weather Map New forecast layout! Learn more

10-Day Weather Forecast

Advertisements
Track Severe Weather on mobile